createdAt,value
2024-01-04T00:00:51.875Z,99345.88
2024-01-04T00:05:53.807Z,99363.13
2024-01-04T00:10:55.747Z,99382.53
2024-01-04T00:15:57.699Z,99379.38
2024-01-04T00:20:59.687Z,99386.09
2024-01-04T00:26:01.687Z,99398.53
2024-01-04T00:31:03.589Z,99409.47
2024-01-04T00:36:06.268Z,99414.09
2024-01-04T00:41:08.136Z,99422.03
2024-01-04T00:46:09.883Z,99434.09
2024-01-04T00:51:11.733Z,99439.38
2024-01-04T00:56:14.941Z,99449.97
2024-01-04T01:01:16.747Z,99446.19
2024-01-04T01:06:18.645Z,99456.31
2024-01-04T01:11:20.647Z,99472.38
2024-01-04T01:16:22.915Z,99485.81
2024-01-04T01:21:24.706Z,99507.53
2024-01-04T01:26:26.417Z,99517.44
2024-01-04T01:31:28.168Z,99530.03
2024-01-04T01:36:29.952Z,99537.47
2024-01-04T01:41:32.056Z,99541.72
2024-01-04T01:46:34.582Z,99541.97
2024-01-04T01:51:37.483Z,99554.16
2024-01-04T01:56:39.945Z,99568.50
2024-01-04T02:01:41.790Z,99571.25
2024-01-04T02:06:43.612Z,99580.91
2024-01-04T02:11:46.710Z,99580.25
2024-01-04T02:16:48.486Z,99581.59
2024-01-04T02:21:50.236Z,99593.38
2024-01-04T02:26:52.706Z,99598.72
2024-01-04T02:31:54.403Z,99603.28
2024-01-04T02:36:56.149Z,99607.13
2024-01-04T02:41:57.930Z,99618.94
2024-01-04T02:46:59.797Z,99623.78
2024-01-04T02:52:01.522Z,99624.22
2024-01-04T02:57:03.542Z,99634.16
2024-01-04T03:02:05.970Z,99647.00
2024-01-04T03:07:08.003Z,99649.56
2024-01-04T03:12:10.101Z,99667.72
2024-01-04T03:17:11.840Z,99661.72
2024-01-04T03:22:13.504Z,99666.34
2024-01-04T03:27:15.189Z,99669.59
2024-01-04T03:32:17.481Z,99681.03
2024-01-04T03:37:19.390Z,99689.38
2024-01-04T03:42:21.140Z,99686.00
2024-01-04T03:47:22.929Z,99697.25
2024-01-04T03:52:26.227Z,99701.47
2024-01-04T03:57:28.079Z,99718.78
2024-01-04T04:02:29.812Z,99709.25
2024-01-04T04:07:31.555Z,99728.91
2024-01-04T04:12:33.239Z,99728.44
2024-01-04T04:17:35.133Z,99722.94
2024-01-04T04:22:36.963Z,99729.56
2024-01-04T04:27:39.148Z,99746.59
2024-01-04T04:32:40.914Z,99754.25
2024-01-04T04:37:42.809Z,99763.50
2024-01-04T04:42:44.586Z,99764.38
2024-01-04T04:47:46.435Z,99767.09
2024-01-04T04:52:48.223Z,99770.69
2024-01-04T04:57:49.940Z,99768.13
2024-01-04T05:02:51.708Z,99781.19
2024-01-04T05:07:53.590Z,99785.00
2024-01-04T05:12:55.398Z,99798.72
2024-01-04T05:17:57.270Z,99807.97
2024-01-04T05:22:59.383Z,99819.59
2024-01-04T05:28:01.264Z,99820.25
2024-01-04T05:33:03.186Z,99816.19
2024-01-04T05:38:05.118Z,99826.97
2024-01-04T05:43:08.256Z,99845.03
2024-01-04T05:48:10.120Z,99842.59
2024-01-04T05:53:12.051Z,99851.66
2024-01-04T05:58:13.799Z,99857.50
2024-01-04T06:03:15.801Z,99866.41
2024-01-04T06:08:17.905Z,99874.19
2024-01-04T06:13:22.309Z,99886.00
2024-01-04T06:18:24.165Z,99892.16
2024-01-04T06:23:26.569Z,99890.44
2024-01-04T06:28:28.416Z,99907.75
2024-01-04T06:33:30.189Z,99906.69
2024-01-04T06:38:32.026Z,99913.31
2024-01-04T06:43:33.743Z,99908.66
2024-01-04T06:48:35.597Z,99930.44
2024-01-04T06:53:37.347Z,99931.44
2024-01-04T06:58:39.292Z,99942.06
2024-01-04T07:03:43.496Z,99937.41
2024-01-04T07:08:45.329Z,99952.44
2024-01-04T07:13:47.028Z,99958.34
2024-01-04T07:18:51.928Z,99963.25
2024-01-04T07:23:53.751Z,99978.50
2024-01-04T07:28:55.537Z,99969.97
2024-01-04T07:33:57.359Z,99981.69
2024-01-04T07:39:05.289Z,99992.25
2024-01-04T07:44:07.060Z,100004.84
2024-01-04T07:49:08.967Z,100008.25
2024-01-04T07:54:14.028Z,100010.69
2024-01-04T07:59:18.737Z,100016.66
2024-01-04T08:04:20.605Z,100023.38
2024-01-04T08:09:22.566Z,100019.22
2024-01-04T08:14:24.391Z,100024.13
2024-01-04T08:19:26.477Z,100032.88
2024-01-04T08:24:29.912Z,100027.06
2024-01-04T08:29:32.008Z,100034.22
2024-01-04T08:34:34.954Z,100032.53
2024-01-04T08:39:36.818Z,100036.28
2024-01-04T08:44:38.570Z,100039.13
2024-01-04T08:49:41.262Z,100048.06
2024-01-04T08:54:43.366Z,100051.41
2024-01-04T08:59:45.193Z,100062.72
2024-01-04T09:04:47.009Z,100053.72
2024-01-04T09:09:48.799Z,100061.69
2024-01-04T09:14:50.594Z,100062.50
2024-01-04T09:19:53.133Z,100072.97
2024-01-04T09:24:55.780Z,100068.28
2024-01-04T09:29:57.606Z,100086.25
2024-01-04T09:34:59.477Z,100094.69
2024-01-04T09:40:01.289Z,100104.69
2024-01-04T09:45:06.107Z,100119.38
2024-01-04T09:50:12.046Z,100120.66
2024-01-04T09:55:14.175Z,100129.03
2024-01-04T10:00:16.356Z,100131.03
2024-01-04T10:05:20.010Z,100139.28
2024-01-04T10:10:22.346Z,100128.25
2024-01-04T10:15:24.186Z,100146.97
2024-01-04T10:20:25.980Z,100148.03
2024-01-04T10:25:27.710Z,100163.19
2024-01-04T10:30:30.483Z,100156.53
2024-01-04T10:35:32.376Z,100158.38
2024-01-04T10:40:34.070Z,100156.28
2024-01-04T10:45:35.812Z,100158.06
2024-01-04T10:50:40.095Z,100168.34
2024-01-04T10:55:43.314Z,100167.88
2024-01-04T11:00:46.432Z,100162.03
2024-01-04T11:05:48.880Z,100156.16
2024-01-04T11:10:53.299Z,100164.31
2024-01-04T11:15:59.494Z,100159.91
2024-01-04T11:21:08.764Z,100157.75
2024-01-04T11:26:23.871Z,100152.25
2024-01-04T11:31:26.294Z,100145.88
2024-01-04T11:36:28.412Z,100153.53
2024-01-04T11:41:37.903Z,100156.41
2024-01-04T11:46:42.351Z,100160.91
2024-01-04T11:51:51.917Z,100156.84
2024-01-04T11:56:53.715Z,100156.59
2024-01-04T12:01:56.580Z,100160.66
2024-01-04T12:07:02.345Z,100163.00
2024-01-04T12:12:05.472Z,100166.66
2024-01-04T12:17:07.241Z,100167.31
2024-01-04T12:22:08.952Z,100155.09
2024-01-04T12:27:11.780Z,100149.69
2024-01-04T12:32:15.890Z,100144.72
2024-01-04T12:37:19.920Z,100144.56
2024-01-04T12:42:22.786Z,100151.19
2024-01-04T12:47:26.336Z,100143.78
2024-01-04T12:52:28.029Z,100139.25
2024-01-04T12:57:29.818Z,100137.38
2024-01-04T13:02:31.605Z,100152.50
2024-01-04T13:07:33.310Z,100144.94
2024-01-04T13:12:35.092Z,100140.66
2024-01-04T13:17:37.012Z,100149.19
2024-01-04T13:22:38.764Z,100146.72
2024-01-04T13:27:40.531Z,100141.53
2024-01-04T13:32:44.301Z,100142.38
2024-01-04T13:37:46.350Z,100146.94
2024-01-04T13:42:48.098Z,100149.56
2024-01-04T13:47:50.864Z,100150.19
2024-01-04T13:52:52.666Z,100142.28
2024-01-04T13:57:57.527Z,100150.22
2024-01-04T14:02:59.730Z,100148.88
2024-01-04T14:08:01.608Z,100151.25
2024-01-04T14:13:07.392Z,100155.69
2024-01-04T14:18:09.369Z,100152.63
2024-01-04T14:23:11.235Z,100151.78
2024-01-04T14:28:13.091Z,100158.72
2024-01-04T14:33:24.382Z,100153.91
2024-01-04T14:38:31.530Z,100153.53
2024-01-04T14:43:34.336Z,100161.09
2024-01-04T14:48:36.211Z,100160.06
2024-01-04T14:53:38.880Z,100147.56
2024-01-04T14:58:42.743Z,100164.97
2024-01-04T15:03:45.717Z,100168.63
2024-01-04T15:08:47.549Z,100170.03
2024-01-04T15:13:49.491Z,100170.84
2024-01-04T15:18:54.024Z,100172.44
2024-01-04T15:23:56.140Z,100163.25
2024-01-04T15:28:59.404Z,100171.09
2024-01-04T15:34:01.406Z,100181.16
2024-01-04T15:39:04.432Z,100173.28
2024-01-04T15:44:10.064Z,100173.59
2024-01-04T15:49:12.215Z,100173.34
2024-01-04T15:54:14.384Z,100174.09
2024-01-04T15:59:16.201Z,100176.63
2024-01-04T16:04:18.001Z,100178.41
2024-01-04T16:09:20.515Z,100180.16
2024-01-04T16:14:22.514Z,100176.47
2024-01-04T16:19:24.409Z,100180.66
2024-01-04T16:24:26.415Z,100188.88
2024-01-04T16:29:31.469Z,100180.34
2024-01-04T16:34:34.031Z,100177.03
2024-01-04T16:39:36.033Z,100180.38
2024-01-04T16:44:39.513Z,100178.72
2024-01-04T16:49:43.817Z,100184.47
2024-01-04T16:54:48.328Z,100182.75
2024-01-04T16:59:50.193Z,100181.84
2024-01-04T17:04:52.105Z,100185.28
2024-01-04T17:10:00.900Z,100183.09
2024-01-04T17:15:03.774Z,100193.03
2024-01-04T17:20:11.724Z,100178.72
2024-01-04T17:25:13.547Z,100174.59
2024-01-04T17:30:22.691Z,100174.63
2024-01-04T17:35:24.742Z,100169.50
2024-01-04T17:40:26.748Z,100180.00
2024-01-04T17:45:32.577Z,100189.25
2024-01-04T17:50:38.294Z,100180.16
2024-01-04T17:55:40.074Z,100184.66
2024-01-04T18:06:01.346Z,100183.09
2024-01-04T18:11:03.944Z,100178.09
2024-01-04T18:16:13.057Z,100177.25
2024-01-04T18:21:19.045Z,100172.59
2024-01-04T18:26:22.214Z,100179.44
2024-01-04T18:31:24.154Z,100171.06
2024-01-04T18:36:26.149Z,100165.09
2024-01-04T18:41:27.981Z,100165.97
2024-01-04T18:46:29.745Z,100168.31
2024-01-04T18:51:31.587Z,100162.31
2024-01-04T18:56:34.551Z,100167.09
2024-01-04T19:01:38.623Z,100146.47
2024-01-04T19:06:47.932Z,100140.47
2024-01-04T19:11:49.878Z,100134.03
2024-01-04T19:16:51.723Z,100125.16
2024-01-04T19:21:53.526Z,100115.22
2024-01-04T19:26:55.431Z,100101.84
2024-01-04T19:31:58.263Z,100099.47
2024-01-04T19:37:00.681Z,100093.31
2024-01-04T19:42:02.538Z,100096.25
2024-01-04T19:47:04.911Z,100089.56
2024-01-04T19:52:06.678Z,100085.59
2024-01-04T19:57:08.659Z,100080.50
2024-01-04T20:02:10.469Z,100077.94
2024-01-04T20:07:13.426Z,100075.88
2024-01-04T20:12:15.469Z,100063.19
2024-01-04T20:17:18.958Z,100056.19
2024-01-04T20:22:20.733Z,100049.38
2024-01-04T20:27:22.669Z,100042.41
2024-01-04T20:32:25.518Z,100035.34
2024-01-04T20:37:27.490Z,100043.06
2024-01-04T20:42:29.540Z,100039.59
2024-01-04T20:47:33.627Z,100031.56
2024-01-04T20:52:35.642Z,100025.53
2024-01-04T20:57:37.561Z,100010.50
2024-01-04T21:02:39.439Z,100009.09
2024-01-04T21:07:41.262Z,100001.78
2024-01-04T21:12:43.394Z,99990.81
2024-01-04T21:17:45.288Z,99984.47
2024-01-04T21:22:48.607Z,99968.25
2024-01-04T21:27:50.532Z,99955.75
2024-01-04T21:32:52.315Z,99947.53
2024-01-04T21:37:54.493Z,99942.88
2024-01-04T21:42:56.503Z,99941.03
2024-01-04T21:47:58.363Z,99934.91
2024-01-04T21:53:00.254Z,99926.31
2024-01-04T21:58:02.080Z,99920.47
2024-01-04T22:03:04.269Z,99898.25
2024-01-04T22:08:06.285Z,99886.97
2024-01-04T22:13:08.708Z,99897.59
2024-01-04T22:18:10.679Z,99885.22
2024-01-04T22:23:12.992Z,99862.09
2024-01-04T22:28:14.931Z,99845.25
2024-01-04T22:33:17.022Z,99843.19
2024-01-04T22:38:18.849Z,99846.03
2024-01-04T22:43:20.729Z,99841.50
2024-01-04T22:48:24.308Z,99826.81
2024-01-04T22:53:26.146Z,99820.47
2024-01-04T22:58:27.877Z,99806.50
2024-01-04T23:03:29.684Z,99802.44
2024-01-04T23:08:31.842Z,99789.03
2024-01-04T23:13:33.602Z,99775.16
2024-01-04T23:18:35.597Z,99760.06
2024-01-04T23:23:37.497Z,99746.56
2024-01-04T23:28:40.798Z,99735.25
2024-01-04T23:33:45.517Z,99722.59
2024-01-04T23:38:47.369Z,99713.34
2024-01-04T23:43:49.166Z,99705.50
2024-01-04T23:48:51.034Z,99691.81
2024-01-04T23:53:52.964Z,99677.38
2024-01-04T23:58:54.716Z,99678.53
